Time;durP1;ratioP1;P1;durP2;ratioP2;P2;SDS_P1;SDS_P2;PMS_P1;PMS_P2;Temp;Humidity;BMP_temperature;BMP_pressure;BME280_temperature;BME280_humidity;BME280_pressure;Samples;Min_cycle;Max_cycle;Signal;HPM_P1;HPM_P2
2021/03/20 00:00:08;;;;;;;3.50;1.52;;;21.00;36.70;;;;;;5077436;28;20453;-52
2021/03/20 00:02:34;;;;;;;1.42;1.10;;;21.00;36.70;;;;;;5076838;28;20550;-49
2021/03/20 00:04:59;;;;;;;1.25;0.70;;;21.00;36.70;;;;;;5077523;28;20037;-53
2021/03/20 00:07:25;;;;;;;1.30;0.63;;;21.00;36.70;;;;;;5059456;28;20024;-48
2021/03/20 00:09:53;;;;;;;1.10;0.80;;;20.90;36.60;;;;;;5077069;28;20055;-51
2021/03/20 00:12:19;;;;;;;2.38;1.05;;;20.90;36.60;;;;;;5077446;28;20024;-53
2021/03/20 00:14:46;;;;;;;1.15;0.80;;;20.90;36.60;;;;;;5077017;28;20464;-53
2021/03/20 00:17:11;;;;;;;3.35;1.10;;;20.90;36.60;;;;;;5076669;28;20024;-52
2021/03/20 00:19:37;;;;;;;2.78;1.02;;;20.90;36.60;;;;;;5076895;28;20081;-55
2021/03/20 00:22:03;;;;;;;1.67;1.15;;;20.90;36.60;;;;;;5077053;28;20029;-51
2021/03/20 00:24:28;;;;;;;1.50;0.90;;;20.80;36.50;;;;;;5065119;28;20463;-51
2021/03/20 00:26:53;;;;;;;1.80;1.00;;;20.80;36.50;;;;;;5056977;28;20021;-53
2021/03/20 00:29:19;;;;;;;1.42;0.90;;;20.80;36.40;;;;;;5056831;28;20506;-53
2021/03/20 00:31:44;;;;;;;3.63;1.30;;;20.80;36.40;;;;;;5056548;28;20028;-53
2021/03/20 00:34:10;;;;;;;1.30;1.00;;;20.80;36.40;;;;;;5056554;28;20025;-51
2021/03/20 00:36:35;;;;;;;0.95;0.70;;;20.70;36.30;;;;;;5056890;28;20024;-55
2021/03/20 00:39:03;;;;;;;1.38;1.08;;;20.70;36.40;;;;;;5056741;28;20082;-51
2021/03/20 00:41:29;;;;;;;1.38;0.93;;;20.70;36.30;;;;;;5057074;28;20039;-49
2021/03/20 00:43:54;;;;;;;1.77;1.08;;;20.70;36.30;;;;;;5056313;28;20120;-51
2021/03/20 00:46:20;;;;;;;1.15;0.88;;;20.60;36.20;;;;;;5038515;28;20104;-51
2021/03/20 00:48:45;;;;;;;1.50;0.93;;;20.70;36.30;;;;;;5056613;28;20021;-49
2021/03/20 00:51:11;;;;;;;0.85;0.80;;;20.60;36.20;;;;;;5056438;28;20036;-49
2021/03/20 00:53:36;;;;;;;2.53;1.20;;;20.60;36.10;;;;;;5056234;28;20079;-52
2021/03/20 00:56:02;;;;;;;1.83;0.90;;;20.60;36.10;;;;;;5056309;28;20036;-46
2021/03/20 00:58:37;;;;;;;3.92;0.80;;;20.60;36.10;;;;;;5055949;28;20059;-49
2021/03/20 01:01:08;;;;;;;1.02;0.88;;;20.60;36.10;;;;;;5055869;28;20382;-47
2021/03/20 01:03:33;;;;;;;1.15;0.85;;;20.50;35.90;;;;;;5055959;28;20104;-47
2021/03/20 01:05:59;;;;;;;1.20;1.08;;;20.60;36.00;;;;;;5056305;28;20159;-49
2021/03/20 01:08:25;;;;;;;2.10;0.80;;;20.50;35.90;;;;;;5055351;28;20025;-49
2021/03/20 01:10:51;;;;;;;0.90;0.80;;;20.50;35.90;;;;;;5055902;28;20029;-50
2021/03/20 01:13:18;;;;;;;1.17;0.82;;;20.50;35.80;;;;;;5055357;28;20364;-53
2021/03/20 01:15:44;;;;;;;1.35;1.05;;;20.40;35.80;;;;;;5055832;28;20087;-48
2021/03/20 01:18:10;;;;;;;1.20;0.93;;;20.50;35.80;;;;;;5055921;28;20134;-48
2021/03/20 01:20:36;;;;;;;1.02;0.70;;;20.50;35.80;;;;;;5055447;28;20424;-48
2021/03/20 01:23:04;;;;;;;1.42;1.10;;;20.40;35.70;;;;;;5055706;28;20040;-49
2021/03/20 01:25:29;;;;;;;1.33;0.93;;;20.40;35.70;;;;;;5055597;28;20059;-50
2021/03/20 01:27:55;;;;;;;1.63;1.10;;;20.40;36.30;;;;;;5055707;28;20025;-53
2021/03/20 01:30:25;;;;;;;1.63;0.90;;;20.30;35.50;;;;;;5056028;28;20131;-48
2021/03/20 01:32:51;;;;;;;0.82;0.82;;;20.30;35.50;;;;;;5055000;28;20102;-49
2021/03/20 01:35:17;;;;;;;2.35;0.88;;;20.30;35.40;;;;;;5055448;28;20025;-53
2021/03/20 01:37:42;;;;;;;2.13;1.20;;;20.30;35.40;;;;;;5055610;28;20029;-51
2021/03/20 01:40:10;;;;;;;1.23;0.82;;;20.30;35.40;;;;;;5055537;28;20029;-52
2021/03/20 01:42:40;;;;;;;1.83;0.90;;;20.30;35.30;;;;;;5054858;28;20451;-50
2021/03/20 01:45:30;;;;;;;1.27;0.85;;;20.30;35.50;;;;;;5055498;28;20064;-49
2021/03/20 01:48:03;;;;;;;1.42;0.80;;;20.30;35.40;;;;;;5055292;28;20063;-52
2021/03/20 01:50:38;;;;;;;2.40;0.90;;;20.20;35.30;;;;;;5055392;28;20025;-51
2021/03/20 01:53:25;;;;;;;0.88;0.70;;;20.20;35.20;;;;;;5054906;28;20025;-52
2021/03/20 01:55:51;;;;;;;1.73;0.93;;;20.20;35.20;;;;;;5055248;28;20112;-52
2021/03/20 01:58:17;;;;;;;1.33;1.10;;;20.20;35.20;;;;;;5054791;28;20464;-54
2021/03/20 02:00:44;;;;;;;0.88;0.77;;;20.10;35.10;;;;;;5055037;28;20336;-49
2021/03/20 02:03:19;;;;;;;1.92;1.05;;;20.10;35.10;;;;;;5055424;28;20028;-54
2021/03/20 02:05:45;;;;;;;1.20;0.88;;;20.10;35.10;;;;;;5054902;28;20037;-49
2021/03/20 02:08:13;;;;;;;1.33;0.90;;;20.10;35.10;;;;;;5054969;28;20051;-55
2021/03/20 02:10:45;;;;;;;1.13;1.00;;;20.10;35.10;;;;;;5054613;28;20561;-50
2021/03/20 02:13:32;;;;;;;0.93;0.82;;;20.10;35.10;;;;;;5055048;28;20102;-49
2021/03/20 02:16:16;;;;;;;1.48;1.10;;;20.00;35.00;;;;;;5055007;28;20466;-49
2021/03/20 02:18:51;;;;;;;2.03;0.90;;;20.10;35.10;;;;;;5054865;28;20025;-49
2021/03/20 02:21:39;;;;;;;1.05;0.85;;;20.00;35.00;;;;;;5054612;28;20440;-50
2021/03/20 02:24:35;;;;;;;0.77;0.77;;;20.00;35.00;;;;;;5054440;28;20061;-50
2021/03/20 02:27:37;;;;;;;6.78;0.95;;;20.00;35.00;;;;;;5054435;28;20052;-53
2021/03/20 02:30:26;;;;;;;1.58;0.82;;;20.00;35.00;;;;;;5054819;28;20052;-52
2021/03/20 02:33:29;;;;;;;1.00;0.90;;;19.90;34.90;;;;;;5003835;28;20098;-48
2021/03/20 02:36:05;;;;;;;0.80;0.75;;;19.90;34.90;;;;;;5054938;28;20075;-51
2021/03/20 02:38:54;;;;;;;1.73;0.77;;;19.90;34.90;;;;;;5054326;28;20028;-49
2021/03/20 02:41:46;;;;;;;1.25;1.00;;;19.90;34.90;;;;;;5037388;28;20381;-49
2021/03/20 02:44:34;;;;;;;1.00;0.90;;;19.90;34.90;;;;;;5054505;28;20025;-52
2021/03/20 02:47:02;;;;;;;2.08;1.17;;;19.80;34.80;;;;;;5054727;28;20025;-51
2021/03/20 02:49:40;;;;;;;1.40;0.90;;;19.80;34.80;;;;;;5036875;28;20025;-52
2021/03/20 02:52:17;;;;;;;1.55;0.73;;;19.80;34.80;;;;;;5054620;28;20032;-51
2021/03/20 02:54:55;;;;;;;0.90;0.73;;;19.80;34.80;;;;;;5054219;28;20367;-55
2021/03/20 02:57:39;;;;;;;1.27;0.80;;;19.80;34.80;;;;;;5054401;28;20039;-54
2021/03/20 03:00:20;;;;;;;1.45;0.93;;;19.80;34.80;;;;;;5054474;28;20024;-53
2021/03/20 03:02:47;;;;;;;0.93;0.90;;;19.80;34.80;;;;;;5054447;28;20055;-51
2021/03/20 03:05:29;;;;;;;1.08;0.98;;;19.70;34.80;;;;;;5054326;28;20033;-51
2021/03/20 03:08:22;;;;;;;0.90;0.80;;;19.70;34.80;;;;;;5054379;28;20029;-55
2021/03/20 03:10:54;;;;;;;1.40;1.00;;;19.70;34.80;;;;;;5041236;28;20037;-54
2021/03/20 03:13:24;;;;;;;1.77;0.90;;;19.70;34.70;;;;;;5054590;28;20025;-54
2021/03/20 03:16:05;;;;;;;0.85;0.82;;;19.70;34.70;;;;;;5054011;28;20032;-53
2021/03/20 03:18:36;;;;;;;1.90;1.08;;;19.70;34.80;;;;;;5054035;28;20040;-52
2021/03/20 03:21:06;;;;;;;1.67;0.70;;;19.70;34.70;;;;;;5054442;28;20025;-54
2021/03/20 03:23:35;;;;;;;0.70;0.70;;;19.70;35.40;;;;;;5054051;28;20029;-53
2021/03/20 03:26:07;;;;;;;1.45;1.20;;;19.60;34.70;;;;;;5054839;28;20106;-54
2021/03/20 03:28:33;;;;;;;0.88;0.80;;;19.60;34.70;;;;;;5054209;28;20028;-50
2021/03/20 03:31:00;;;;;;;3.22;1.00;;;19.60;34.70;;;;;;5054096;28;20025;-53
2021/03/20 03:33:33;;;;;;;0.85;0.60;;;19.60;34.70;;;;;;5057877;28;20021;-52
2021/03/20 03:36:04;;;;;;;1.00;0.75;;;19.60;34.60;;;;;;5057659;28;20024;-54
2021/03/20 03:38:54;;;;;;;1.40;1.00;;;19.60;34.70;;;;;;5058031;28;20052;-53
2021/03/20 03:41:25;;;;;;;1.05;0.90;;;19.60;34.60;;;;;;5057732;28;20021;-50
2021/03/20 03:43:52;;;;;;;0.95;0.82;;;19.50;34.60;;;;;;5057547;28;20047;-54
2021/03/20 03:46:30;;;;;;;1.50;1.08;;;19.50;34.60;;;;;;5058087;28;20099;-52
2021/03/20 03:48:57;;;;;;;1.90;1.10;;;19.50;34.60;;;;;;5057641;28;20025;-51
2021/03/20 03:51:24;;;;;;;0.70;0.70;;;19.50;34.60;;;;;;5057192;28;20436;-53
2021/03/20 03:53:52;;;;;;;0.73;0.70;;;19.50;34.60;;;;;;5057435;28;20025;-54
2021/03/20 03:56:28;;;;;;;1.08;0.90;;;19.50;34.60;;;;;;5039673;28;20033;-54
2021/03/20 03:59:20;;;;;;;1.20;1.00;;;19.50;34.60;;;;;;5057002;28;20078;-51
2021/03/20 04:02:04;;;;;;;1.25;0.70;;;19.50;34.60;;;;;;5057363;28;20059;-52
2021/03/20 04:04:46;;;;;;;1.80;1.00;;;19.40;34.50;;;;;;5056599;28;20428;-52
2021/03/20 04:07:30;;;;;;;2.28;1.08;;;19.40;34.50;;;;;;5057246;28;20023;-52
2021/03/20 04:10:27;;;;;;;1.13;0.70;;;19.40;34.50;;;;;;5057042;28;20041;-53
2021/03/20 04:13:23;;;;;;;1.00;0.80;;;19.40;34.50;;;;;;5039211;28;20041;-48
2021/03/20 04:16:11;;;;;;;1.17;0.82;;;19.40;34.50;;;;;;5056763;28;20029;-54
2021/03/20 04:18:41;;;;;;;0.77;0.70;;;19.40;34.50;;;;;;5057141;28;20020;-54
2021/03/20 04:21:43;;;;;;;1.13;1.02;;;19.30;34.40;;;;;;5056577;28;20021;-53
2021/03/20 04:24:23;;;;;;;0.60;0.60;;;19.30;34.50;;;;;;5056602;28;20096;-53
2021/03/20 04:27:05;;;;;;;1.05;0.60;;;19.30;34.40;;;;;;5056660;28;20078;-55
2021/03/20 04:29:57;;;;;;;1.23;1.10;;;19.30;34.40;;;;;;5056388;28;20037;-51
2021/03/20 04:32:44;;;;;;;1.23;1.08;;;19.30;34.50;;;;;;5056654;28;20024;-54
2021/03/20 04:35:21;;;;;;;0.95;0.85;;;19.20;34.40;;;;;;5056527;28;20040;-53
2021/03/20 04:37:50;;;;;;;1.25;1.00;;;19.20;34.40;;;;;;5056511;28;20029;-53
2021/03/20 04:40:50;;;;;;;1.67;0.80;;;19.20;34.30;;;;;;5056852;28;20025;-50
2021/03/20 04:43:20;;;;;;;1.98;0.90;;;19.30;34.40;;;;;;5056453;28;20028;-49
2021/03/20 04:45:59;;;;;;;0.80;0.80;;;19.20;34.30;;;;;;5056713;28;20344;-46
2021/03/20 04:48:31;;;;;;;1.35;0.98;;;19.20;34.30;;;;;;5056415;28;20098;-49
2021/03/20 04:51:08;;;;;;;1.17;0.88;;;19.20;34.30;;;;;;5056728;28;20025;-48
2021/03/20 04:53:34;;;;;;;0.90;0.80;;;19.20;34.30;;;;;;5056560;28;20033;-52
2021/03/20 04:56:05;;;;;;;0.77;0.77;;;19.10;34.20;;;;;;5056367;28;20025;-48
2021/03/20 04:58:50;;;;;;;1.38;1.00;;;19.20;34.30;;;;;;5055652;28;20028;-50
2021/03/20 05:01:24;;;;;;;3.10;0.90;;;19.10;34.20;;;;;;5055871;28;20029;-54
2021/03/20 05:03:59;;;;;;;2.22;0.90;;;19.10;34.20;;;;;;5055961;28;20036;-51
2021/03/20 05:06:27;;;;;;;1.50;1.20;;;19.10;34.30;;;;;;5055679;28;20482;-48
2021/03/20 05:08:59;;;;;;;0.77;0.77;;;19.10;34.30;;;;;;5056095;28;20383;-50
2021/03/20 05:11:32;;;;;;;1.25;0.60;;;19.10;34.90;;;;;;5055822;28;20055;-48
2021/03/20 05:14:25;;;;;;;0.80;0.80;;;19.10;34.20;;;;;;5055938;28;20083;-50
2021/03/20 05:16:53;;;;;;;1.15;0.80;;;19.10;34.20;;;;;;5056604;28;20059;-47
2021/03/20 05:19:21;;;;;;;2.95;1.00;;;19.10;34.20;;;;;;5056407;28;20498;-50
2021/03/20 05:21:50;;;;;;;1.17;0.90;;;19.00;34.70;;;;;;5056923;28;20396;-50
2021/03/20 05:24:24;;;;;;;1.10;1.00;;;19.00;35.10;;;;;;5068612;28;20040;-50
2021/03/20 05:26:51;;;;;;;4.85;1.08;;;19.00;35.30;;;;;;5070836;28;20033;-50
2021/03/20 05:29:17;;;;;;;4.53;0.98;;;19.00;35.20;;;;;;5055564;28;20025;-48
2021/03/20 05:31:43;;;;;;;7.63;1.00;;;19.00;35.30;;;;;;5055092;28;20111;-48
2021/03/20 05:34:39;;;;;;;5.97;1.20;;;19.00;35.40;;;;;;5055387;28;20067;-50
2021/03/20 05:37:06;;;;;;;9.73;1.65;;;19.00;35.40;;;;;;5034931;28;20440;-48
2021/03/20 05:39:32;;;;;;;9.23;1.58;;;19.00;35.40;;;;;;5074205;28;20024;-49
2021/03/20 05:42:32;;;;;;;6.55;1.30;;;19.00;35.60;;;;;;5075087;28;20077;-48
2021/03/20 05:45:34;;;;;;;2.58;1.38;;;19.00;35.50;;;;;;5075220;28;20029;-48
2021/03/20 05:48:11;;;;;;;8.73;1.42;;;19.00;35.50;;;;;;5075437;28;20047;-50
2021/03/20 05:51:00;;;;;;;11.30;1.48;;;18.90;35.80;;;;;;5075196;28;20039;-46
2021/03/20 05:53:58;;;;;;;14.70;1.42;;;18.90;35.80;;;;;;5075558;28;20063;-47
2021/03/20 05:56:46;;;;;;;17.70;2.05;;;18.90;35.80;;;;;;5075186;28;20032;-49
2021/03/20 05:59:23;;;;;;;16.05;2.65;;;18.90;35.90;;;;;;5075110;28;20028;-48
2021/03/20 06:02:17;;;;;;;11.02;1.67;;;19.00;36.10;;;;;;5074970;28;20021;-49
2021/03/20 06:04:54;;;;;;;4.90;1.20;;;18.90;36.80;;;;;;5071595;28;20439;-49
2021/03/20 06:07:38;;;;;;;6.07;1.35;;;18.90;36.40;;;;;;5063448;28;20037;-51
2021/03/20 06:10:06;;;;;;;9.25;1.75;;;18.90;36.30;;;;;;5054741;28;20028;-46
2021/03/20 06:12:51;;;;;;;15.93;1.60;;;18.90;36.30;;;;;;5054553;28;20025;-48
2021/03/20 06:15:49;;;;;;;17.05;1.73;;;18.90;36.20;;;;;;5054869;28;20036;-49
2021/03/20 06:18:14;;;;;;;3.33;1.33;;;18.90;36.30;;;;;;5037341;28;20037;-47
2021/03/20 06:21:04;;;;;;;5.95;1.23;;;18.90;36.30;;;;;;5054537;28;20035;-50
2021/03/20 06:24:08;;;;;;;7.35;2.20;;;18.90;36.40;;;;;;5054488;28;20029;-48
2021/03/20 06:26:37;;;;;;;5.72;1.10;;;18.90;36.40;;;;;;5054689;28;20037;-49
2021/03/20 06:29:20;;;;;;;3.90;0.90;;;19.00;36.60;;;;;;5054683;28;20021;-48
2021/03/20 06:31:49;;;;;;;6.15;1.55;;;19.00;36.60;;;;;;5054473;28;20075;-48
2021/03/20 06:34:25;;;;;;;2.75;0.80;;;19.10;36.60;;;;;;5054563;28;20021;-50
2021/03/20 06:36:55;;;;;;;10.02;1.00;;;19.10;36.50;;;;;;5054815;28;20083;-49
2021/03/20 06:39:45;;;;;;;5.45;0.93;;;19.20;36.60;;;;;;5054313;28;20071;-51
2021/03/20 06:42:16;;;;;;;3.60;1.13;;;19.30;36.90;;;;;;5054512;28;20025;-49
2021/03/20 06:44:46;;;;;;;4.45;1.10;;;19.30;36.90;;;;;;5036992;28;20029;-49
2021/03/20 06:47:24;;;;;;;3.53;1.10;;;19.40;37.00;;;;;;5056422;28;20030;-49
2021/03/20 06:50:13;;;;;;;6.43;1.23;;;19.40;37.00;;;;;;5063391;28;20039;-49
2021/03/20 06:52:39;;;;;;;6.03;0.75;;;19.40;36.90;;;;;;5054662;28;20124;-48
2021/03/20 06:55:32;;;;;;;2.85;1.17;;;19.50;36.90;;;;;;5054777;28;20428;-49
2021/03/20 06:58:01;;;;;;;1.90;1.25;;;19.50;37.10;;;;;;5054462;28;20036;-47
2021/03/20 07:00:30;;;;;;;3.33;1.30;;;19.60;37.10;;;;;;5054740;28;20116;-51
2021/03/20 07:03:30;;;;;;;4.80;1.40;;;19.60;36.90;;;;;;5054805;28;20039;-52
2021/03/20 07:06:06;;;;;;;4.82;1.20;;;19.60;36.80;;;;;;5054046;28;20033;-53
2021/03/20 07:08:54;;;;;;;3.35;1.13;;;19.60;36.70;;;;;;5058254;28;20021;-48
2021/03/20 07:11:35;;;;;;;4.15;1.10;;;19.60;36.70;;;;;;5058105;28;20226;-52
2021/03/20 07:14:04;;;;;;;6.70;1.10;;;19.70;36.80;;;;;;5058323;28;20420;-51
2021/03/20 07:16:31;;;;;;;8.93;1.15;;;19.70;36.80;;;;;;5058016;28;20032;-50
2021/03/20 07:19:03;;;;;;;3.40;0.90;;;19.70;36.80;;;;;;5058061;28;20029;-48
2021/03/20 07:21:35;;;;;;;2.55;0.98;;;19.80;36.70;;;;;;5058284;28;20017;-50
2021/03/20 07:24:12;;;;;;;4.30;1.00;;;19.80;36.70;;;;;;5057612;28;20041;-49
2021/03/20 07:27:03;;;;;;;3.35;0.85;;;19.80;36.70;;;;;;5057829;28;20032;-51
2021/03/20 07:29:44;;;;;;;2.13;1.00;;;19.90;36.80;;;;;;5058035;28;20417;-49
2021/03/20 07:32:35;;;;;;;3.90;1.08;;;19.90;36.70;;;;;;5057805;28;20028;-49
2021/03/20 07:35:19;;;;;;;3.85;1.05;;;20.00;36.70;;;;;;5048517;28;20383;-51
2021/03/20 07:37:45;;;;;;;3.15;1.00;;;20.00;36.80;;;;;;5066440;28;20485;-47
2021/03/20 07:40:39;;;;;;;6.80;1.38;;;20.00;37.40;;;;;;5040531;28;20387;-55
2021/03/20 07:43:17;;;;;;;2.85;1.50;;;20.00;36.70;;;;;;5056562;28;20040;-49
2021/03/20 07:45:45;;;;;;;4.82;0.80;;;20.10;36.70;;;;;;5057515;28;20123;-50
2021/03/20 07:48:26;;;;;;;2.25;0.82;;;20.10;36.70;;;;;;5057424;28;20332;-47
2021/03/20 07:50:57;;;;;;;4.85;1.77;;;20.10;36.70;;;;;;5057628;28;20101;-52
2021/03/20 07:53:24;;;;;;;1.50;0.70;;;20.10;36.60;;;;;;5067032;28;20028;-50
2021/03/20 07:56:25;;;;;;;2.13;1.08;;;20.10;36.60;;;;;;5057263;28;20021;-52
2021/03/20 07:59:02;;;;;;;3.35;0.98;;;20.20;36.60;;;;;;5064422;28;20348;-48
2021/03/20 08:01:32;;;;;;;3.50;1.00;;;20.20;36.60;;;;;;5059763;28;20067;-49
2021/03/20 08:04:04;;;;;;;3.03;1.42;;;20.20;36.50;;;;;;5057126;28;20034;-48
2021/03/20 08:06:39;;;;;;;2.78;0.75;;;20.30;36.50;;;;;;5064364;28;20387;-54
2021/03/20 08:09:17;;;;;;;6.25;1.30;;;20.30;36.50;;;;;;5077528;28;20320;-50
2021/03/20 08:11:45;;;;;;;2.13;0.93;;;20.30;36.50;;;;;;5077025;28;20039;-51
2021/03/20 08:14:35;;;;;;;1.73;1.00;;;20.40;36.40;;;;;;5077213;28;20024;-51
2021/03/20 08:17:01;;;;;;;7.93;1.08;;;20.40;36.20;;;;;;5060030;28;20047;-49
2021/03/20 08:19:31;;;;;;;4.80;1.90;;;20.40;36.10;;;;;;5038621;28;20304;-49
2021/03/20 08:22:07;;;;;;;2.25;0.90;;;20.40;36.00;;;;;;5059942;28;20112;-50
2021/03/20 08:24:58;;;;;;;4.47;1.15;;;20.40;35.80;;;;;;5056352;28;20103;-50
2021/03/20 08:28:02;;;;;;;4.82;1.00;;;20.40;35.80;;;;;;5055643;28;20036;-54
2021/03/20 08:30:38;;;;;;;4.50;1.30;;;20.40;35.70;;;;;;5038485;28;20041;-49
2021/03/20 08:33:12;;;;;;;6.18;1.33;;;20.50;35.70;;;;;;5076768;28;20138;-52
2021/03/20 08:35:58;;;;;;;1.02;0.90;;;20.50;35.60;;;;;;5076554;28;20031;-49
2021/03/20 08:39:01;;;;;;;2.03;1.10;;;20.50;35.50;;;;;;5076798;28;20149;-54
2021/03/20 08:41:40;;;;;;;5.85;1.00;;;20.50;35.40;;;;;;5074494;28;20044;-53
2021/03/20 08:44:25;;;;;;;3.58;1.05;;;20.50;35.40;;;;;;5072919;28;20120;-50
2021/03/20 08:47:26;;;;;;;5.13;1.35;;;20.60;35.40;;;;;;5076315;28;20528;-54
2021/03/20 08:49:55;;;;;;;6.70;1.20;;;20.60;35.40;;;;;;5058749;28;20025;-52
2021/03/20 08:52:26;;;;;;;5.18;1.05;;;20.60;35.40;;;;;;5068258;28;20042;-53
2021/03/20 08:55:15;;;;;;;6.40;1.23;;;20.70;35.50;;;;;;5056607;28;20029;-50
2021/03/20 08:57:48;;;;;;;3.30;1.27;;;20.70;35.60;;;;;;5055957;28;20433;-55
2021/03/20 09:00:32;;;;;;;3.15;0.80;;;20.70;35.70;;;;;;5056148;28;20558;-54
2021/03/20 09:03:04;;;;;;;4.43;1.00;;;20.70;35.70;;;;;;5055975;28;20025;-54
2021/03/20 09:05:34;;;;;;;3.53;0.98;;;20.70;35.70;;;;;;5066105;28;20036;-52
2021/03/20 09:08:27;;;;;;;2.30;1.10;;;20.80;35.90;;;;;;5076074;28;20020;-48
2021/03/20 09:11:21;;;;;;;2.92;0.85;;;20.80;35.90;;;;;;5071958;28;20016;-53
2021/03/20 09:14:12;;;;;;;2.42;0.95;;;20.80;36.20;;;;;;5055557;28;20463;-53
2021/03/20 09:16:43;;;;;;;5.18;0.85;;;20.90;36.30;;;;;;5055756;28;20092;-54
2021/03/20 09:19:22;;;;;;;3.22;0.80;;;20.90;36.40;;;;;;5057367;28;20024;-53
2021/03/20 09:21:48;;;;;;;4.47;0.90;;;20.90;36.40;;;;;;5060635;28;20079;-52
2021/03/20 09:24:23;;;;;;;7.35;1.00;;;20.90;36.40;;;;;;5075278;28;20351;-51
2021/03/20 09:26:58;;;;;;;2.65;0.80;;;21.00;36.40;;;;;;5075357;28;20020;-52
2021/03/20 09:29:26;;;;;;;5.10;1.33;;;21.00;36.40;;;;;;5074864;28;20029;-49
2021/03/20 09:31:55;;;;;;;5.25;1.05;;;21.10;36.50;;;;;;5075250;28;20024;-53
2021/03/20 09:34:35;;;;;;;2.17;1.05;;;21.10;36.50;;;;;;5060457;28;20039;-53
2021/03/20 09:37:26;;;;;;;1.95;0.63;;;21.20;36.60;;;;;;5062402;28;20108;-51
2021/03/20 09:39:54;;;;;;;4.00;0.88;;;21.20;36.50;;;;;;5030634;28;20123;-49
2021/03/20 09:42:29;;;;;;;2.88;0.70;;;21.30;36.50;;;;;;5075126;28;20063;-49
2021/03/20 09:45:26;;;;;;;2.20;0.70;;;21.30;36.50;;;;;;5063304;28;20352;-51
2021/03/20 09:47:57;;;;;;;1.67;0.90;;;21.30;36.60;;;;;;5037353;28;20040;-47
2021/03/20 09:50:25;;;;;;;1.85;0.80;;;21.30;36.60;;;;;;5055376;28;20032;-52
2021/03/20 09:53:09;;;;;;;2.45;0.90;;;21.40;36.70;;;;;;5054993;28;20082;-49
2021/03/20 09:55:42;;;;;;;2.22;0.90;;;21.40;36.80;;;;;;5055268;28;20025;-49
2021/03/20 09:58:27;;;;;;;1.33;0.68;;;21.40;36.80;;;;;;5055340;28;20021;-51
2021/03/20 10:00:53;;;;;;;3.85;0.88;;;21.50;37.00;;;;;;5046927;28;20032;-51
2021/03/20 10:03:38;;;;;;;2.35;0.55;;;21.50;37.00;;;;;;5054549;28;20372;-51
2021/03/20 10:06:29;;;;;;;1.73;0.70;;;21.50;37.00;;;;;;5055271;28;20075;-52
2021/03/20 10:09:04;;;;;;;1.98;0.88;;;21.50;37.00;;;;;;5054895;28;20043;-49
2021/03/20 10:11:38;;;;;;;1.30;0.70;;;21.60;37.00;;;;;;5056674;28;20098;-48
2021/03/20 10:14:32;;;;;;;1.77;0.85;;;21.60;37.00;;;;;;5075353;28;20035;-58
2021/03/20 10:17:04;;;;;;;2.83;1.20;;;21.60;36.80;;;;;;5075208;28;20052;-46
2021/03/20 10:19:43;;;;;;;1.23;0.57;;;21.60;36.90;;;;;;5068544;28;20428;-50
2021/03/20 10:22:25;;;;;;;1.25;0.60;;;21.70;36.90;;;;;;5037461;28;20044;-52
2021/03/20 10:24:52;;;;;;;2.05;0.68;;;21.70;36.90;;;;;;5054321;28;20463;-54
2021/03/20 10:27:32;;;;;;;2.15;0.50;;;21.70;36.80;;;;;;5054982;28;20025;-51
2021/03/20 10:30:23;;;;;;;3.22;0.82;;;21.70;36.80;;;;;;5055638;28;20025;-49
2021/03/20 10:33:00;;;;;;;4.45;1.17;;;21.70;36.50;;;;;;5057523;28;20081;-50
2021/03/20 10:35:28;;;;;;;3.15;1.00;;;21.70;36.80;;;;;;5037161;28;20025;-52
2021/03/20 10:37:54;;;;;;;4.15;0.70;;;21.70;36.70;;;;;;5054190;28;20179;-50
2021/03/20 10:40:29;;;;;;;1.10;0.75;;;21.70;36.60;;;;;;5062279;28;20450;-52
2021/03/20 10:43:00;;;;;;;1.27;0.77;;;21.80;36.70;;;;;;5076727;28;20028;-52
2021/03/20 10:45:36;;;;;;;1.40;0.60;;;21.80;36.60;;;;;;5071758;28;20037;-49
2021/03/20 10:48:10;;;;;;;1.77;0.85;;;21.80;36.40;;;;;;5058607;28;20036;-47
2021/03/20 10:50:42;;;;;;;5.82;0.90;;;21.80;36.50;;;;;;5058778;28;20099;-53
2021/03/20 10:53:22;;;;;;;2.05;0.75;;;21.80;36.40;;;;;;5058542;28;20032;-54
2021/03/20 10:55:53;;;;;;;1.20;0.60;;;21.80;36.30;;;;;;5058538;28;20044;-50
2021/03/20 10:58:33;;;;;;;0.75;0.75;;;21.90;36.30;;;;;;5058810;28;20092;-52
2021/03/20 11:00:59;;;;;;;0.52;0.50;;;21.90;36.30;;;;;;5058747;28;20104;-46
2021/03/20 11:03:36;;;;;;;1.05;0.65;;;21.90;36.30;;;;;;5057900;28;20459;-50
2021/03/20 11:06:15;;;;;;;1.67;0.70;;;21.90;36.20;;;;;;5062852;28;20032;-47
2021/03/20 11:08:43;;;;;;;1.83;0.90;;;21.90;36.00;;;;;;5071311;28;20041;-46
2021/03/20 11:11:29;;;;;;;1.10;0.77;;;21.90;35.90;;;;;;5058926;28;20032;-48
2021/03/20 11:14:04;;;;;;;1.23;0.70;;;21.90;34.70;;;;;;5078149;28;20067;-49
2021/03/20 11:16:30;;;;;;;2.05;0.80;;;21.80;35.20;;;;;;5077777;28;20028;-51
2021/03/20 11:19:10;;;;;;;1.48;0.82;;;21.80;35.30;;;;;;5069421;28;20036;-53
2021/03/20 11:21:47;;;;;;;3.63;0.80;;;21.80;35.50;;;;;;5062689;28;20029;-52
2021/03/20 11:24:24;;;;;;;1.17;0.60;;;21.80;35.50;;;;;;5057373;28;20048;-51
2021/03/20 11:26:50;;;;;;;0.40;0.40;;;21.80;35.50;;;;;;5073436;28;20082;-52
2021/03/20 11:29:23;;;;;;;1.05;0.60;;;21.90;35.60;;;;;;5064158;28;20027;-49
2021/03/20 11:32:03;;;;;;;1.40;0.73;;;21.90;35.60;;;;;;5059232;28;20075;-53
2021/03/20 11:34:33;;;;;;;1.08;0.47;;;22.00;35.70;;;;;;5077824;28;20059;-52
2021/03/20 11:37:01;;;;;;;2.45;0.90;;;21.90;35.40;;;;;;5077572;28;20097;-50
2021/03/20 11:39:28;;;;;;;2.92;1.20;;;21.90;35.40;;;;;;5077978;28;20025;-50
2021/03/20 11:41:58;;;;;;;5.10;1.45;;;21.90;34.90;;;;;;5077553;28;20077;-51
2021/03/20 11:44:26;;;;;;;4.88;1.08;;;21.90;33.70;;;;;;5077806;28;20497;-51
2021/03/20 11:47:00;;;;;;;3.38;0.80;;;21.90;33.90;;;;;;5066384;28;20460;-49
2021/03/20 11:49:43;;;;;;;1.88;0.60;;;21.90;34.10;;;;;;5057764;28;20025;-52
2021/03/20 11:52:23;;;;;;;2.08;0.50;;;21.90;34.20;;;;;;5056819;28;20029;-51
2021/03/20 11:55:17;;;;;;;2.25;0.70;;;21.90;34.40;;;;;;5057734;28;20064;-48
2021/03/20 11:57:44;;;;;;;2.88;0.80;;;21.90;34.60;;;;;;5054337;28;20123;-49
2021/03/20 12:00:45;;;;;;;4.35;0.80;;;22.00;34.80;;;;;;5060862;28;20016;-52
2021/03/20 12:03:38;;;;;;;2.50;1.02;;;22.00;34.90;;;;;;5069681;28;20036;-50
2021/03/20 12:06:15;;;;;;;6.53;0.70;;;22.00;35.00;;;;;;5077151;28;20039;-53
2021/03/20 12:08:47;;;;;;;6.90;1.40;;;22.00;35.10;;;;;;5077150;28;20024;-54
2021/03/20 12:11:18;;;;;;;0.80;0.52;;;22.00;35.00;;;;;;5077242;28;20124;-49
2021/03/20 12:13:53;;;;;;;4.65;0.93;;;22.00;35.10;;;;;;5076731;28;20021;-53
2021/03/20 12:16:29;;;;;;;2.88;0.73;;;22.00;35.20;;;;;;5077012;28;20116;-47
2021/03/20 12:19:19;;;;;;;3.70;0.70;;;22.00;35.40;;;;;;5076764;28;20017;-52
2021/03/20 12:22:47;;;;;;;1.85;1.00;;;22.10;35.50;;;;;;5076984;28;20012;-49
2021/03/20 12:25:21;;;;;;;0.88;0.50;;;22.10;35.60;;;;;;4975649;28;20059;-51
2021/03/20 12:27:49;;;;;;;0.80;0.45;;;22.00;35.60;;;;;;5076569;28;20036;-46
2021/03/20 12:30:28;;;;;;;1.42;0.40;;;22.00;35.70;;;;;;5076790;28;20585;-51
2021/03/20 12:33:12;;;;;;;0.90;0.45;;;22.00;35.70;;;;;;5076400;28;20060;-52
2021/03/20 12:35:40;;;;;;;4.13;0.80;;;22.00;35.70;;;;;;5076654;28;20501;-48
2021/03/20 12:38:15;;;;;;;1.00;0.55;;;22.00;35.80;;;;;;5076789;28;20029;-47
2021/03/20 12:40:46;;;;;;;6.78;2.33;;;22.00;36.00;;;;;;5076266;28;20443;-47
2021/03/20 12:43:18;;;;;;;11.50;3.65;;;22.00;35.60;;;;;;5076644;28;20036;-46
2021/03/20 12:45:44;;;;;;;16.00;4.97;;;22.00;35.40;;;;;;5076946;28;20443;-47
2021/03/20 12:48:12;;;;;;;19.45;6.30;;;22.00;35.20;;;;;;5076159;28;20086;-46
2021/03/20 12:50:38;;;;;;;21.00;7.80;;;22.00;35.20;;;;;;5076464;28;20032;-46
2021/03/20 12:53:05;;;;;;;28.35;8.85;;;21.90;35.00;;;;;;5076360;28;20024;-47
2021/03/20 12:55:30;;;;;;;18.40;7.25;;;21.90;35.00;;;;;;5076493;28;20099;-47
2021/03/20 12:57:56;;;;;;;18.02;6.47;;;21.90;34.80;;;;;;5076402;28;20151;-49
2021/03/20 13:00:23;;;;;;;12.95;5.95;;;21.90;34.80;;;;;;5076057;28;20402;-50
2021/03/20 13:02:49;;;;;;;8.60;3.70;;;21.80;32.70;;;;;;5075983;28;20028;-50
2021/03/20 13:05:25;;;;;;;3.85;2.40;;;21.70;31.10;;;;;;5072342;28;20066;-45
2021/03/20 13:07:51;;;;;;;7.35;2.38;;;21.50;30.50;;;;;;5075996;28;20012;-46
2021/03/20 13:10:17;;;;;;;2.58;2.00;;;21.40;30.40;;;;;;5069217;28;20028;-46
2021/03/20 13:12:43;;;;;;;2.65;1.90;;;21.30;30.10;;;;;;5063047;28;20404;-46
2021/03/20 13:15:09;;;;;;;3.15;1.90;;;21.30;30.00;;;;;;5072538;28;20107;-48
2021/03/20 13:17:34;;;;;;;2.45;1.67;;;21.20;29.70;;;;;;5075945;28;20031;-47
2021/03/20 13:20:00;;;;;;;5.13;1.98;;;21.20;29.50;;;;;;5075470;28;20021;-47
2021/03/20 13:22:26;;;;;;;3.58;1.90;;;21.10;29.50;;;;;;5070606;28;20351;-45
2021/03/20 13:24:52;;;;;;;1.83;1.63;;;21.00;29.30;;;;;;5055713;28;20052;-44
2021/03/20 13:27:18;;;;;;;2.05;1.85;;;20.90;29.30;;;;;;5055426;28;20110;-47
2021/03/20 13:29:43;;;;;;;3.90;1.90;;;20.80;29.50;;;;;;5055353;28;20031;-45